sensor_id;sensor_type;location;lat;lon;timestamp;temperature;humidity
11925;DHT22;6022;48.768;18.608;2024-03-23T00:55:38;8.30;99.90
11925;DHT22;6022;48.768;18.608;2024-03-23T00:58:05;8.50;99.90
11925;DHT22;6022;48.768;18.608;2024-03-23T01:00:32;8.30;99.90
11925;DHT22;6022;48.768;18.608;2024-03-23T01:02:58;8.20;99.90
11925;DHT22;6022;48.768;18.608;2024-03-23T01:05:25;8.50;99.90
11925;DHT22;6022;48.768;18.608;2024-03-23T01:07:52;8.10;99.90
11925;DHT22;6022;48.768;18.608;2024-03-23T01:10:19;8.10;99.90
11925;DHT22;6022;48.768;18.608;2024-03-23T01:12:46;8.20;99.90
11925;DHT22;6022;48.768;18.608;2024-03-23T01:15:14;8.10;99.90
11925;DHT22;6022;48.768;18.608;2024-03-23T01:17:41;8.00;99.90
11925;DHT22;6022;48.768;18.608;2024-03-23T01:20:08;8.10;99.90
11925;DHT22;6022;48.768;18.608;2024-03-23T01:22:35;8.30;99.90
11925;DHT22;6022;48.768;18.608;2024-03-23T01:25:02;8.20;99.90
11925;DHT22;6022;48.768;18.608;2024-03-23T01:27:30;8.30;99.90
11925;DHT22;6022;48.768;18.608;2024-03-23T01:29:56;7.90;99.90
11925;DHT22;6022;48.768;18.608;2024-03-23T01:32:23;8.20;99.90
11925;DHT22;6022;48.768;18.608;2024-03-23T01:34:51;8.30;99.90
11925;DHT22;6022;48.768;18.608;2024-03-23T01:37:17;8.30;99.90
11925;DHT22;6022;48.768;18.608;2024-03-23T01:39:44;8.30;99.90
11925;DHT22;6022;48.768;18.608;2024-03-23T01:42:11;8.50;99.90
11925;DHT22;6022;48.768;18.608;2024-03-23T01:44:38;8.30;99.90
11925;DHT22;6022;48.768;18.608;2024-03-23T01:47:06;8.20;99.90
11925;DHT22;6022;48.768;18.608;2024-03-23T01:49:33;8.40;99.90
11925;DHT22;6022;48.768;18.608;2024-03-23T01:52:01;8.20;99.90
11925;DHT22;6022;48.768;18.608;2024-03-23T01:54:29;8.30;99.90
11925;DHT22;6022;48.768;18.608;2024-03-23T01:56:57;8.30;99.90
11925;DHT22;6022;48.768;18.608;2024-03-23T01:59:25;8.30;99.90
11925;DHT22;6022;48.768;18.608;2024-03-23T02:01:52;8.20;99.90
11925;DHT22;6022;48.768;18.608;2024-03-23T02:04:19;8.10;99.90
11925;DHT22;6022;48.768;18.608;2024-03-23T02:06:46;8.30;99.90
11925;DHT22;6022;48.768;18.608;2024-03-23T02:09:12;8.20;99.90
11925;DHT22;6022;48.768;18.608;2024-03-23T02:11:41;8.30;99.90
11925;DHT22;6022;48.768;18.608;2024-03-23T02:14:08;8.10;99.90
11925;DHT22;6022;48.768;18.608;2024-03-23T02:16:34;8.40;99.90
11925;DHT22;6022;48.768;18.608;2024-03-23T02:19:02;8.30;99.90
11925;DHT22;6022;48.768;18.608;2024-03-23T02:21:28;8.30;99.90
11925;DHT22;6022;48.768;18.608;2024-03-23T02:23:59;8.40;99.90
11925;DHT22;6022;48.768;18.608;2024-03-23T02:26:26;8.40;99.90
11925;DHT22;6022;48.768;18.608;2024-03-23T02:28:53;8.40;99.90
11925;DHT22;6022;48.768;18.608;2024-03-23T02:31:20;8.40;99.90
11925;DHT22;6022;48.768;18.608;2024-03-23T02:33:47;8.50;99.90
11925;DHT22;6022;48.768;18.608;2024-03-23T02:36:13;8.40;99.90
11925;DHT22;6022;48.768;18.608;2024-03-23T02:38:40;8.60;99.90
11925;DHT22;6022;48.768;18.608;2024-03-23T02:41:07;8.50;99.90
11925;DHT22;6022;48.768;18.608;2024-03-23T02:43:34;8.50;99.90
11925;DHT22;6022;48.768;18.608;2024-03-23T02:46:01;8.60;99.90
11925;DHT22;6022;48.768;18.608;2024-03-23T02:48:29;8.60;99.90
11925;DHT22;6022;48.768;18.608;2024-03-23T02:50:56;8.50;99.90
11925;DHT22;6022;48.768;18.608;2024-03-23T02:53:23;8.30;99.90
11925;DHT22;6022;48.768;18.608;2024-03-23T02:55:49;8.40;99.90
11925;DHT22;6022;48.768;18.608;2024-03-23T02:58:16;8.30;99.90
11925;DHT22;6022;48.768;18.608;2024-03-23T03:00:43;8.40;99.90
11925;DHT22;6022;48.768;18.608;2024-03-23T03:03:09;8.30;99.90
11925;DHT22;6022;48.768;18.608;2024-03-23T03:05:36;8.30;99.90
11925;DHT22;6022;48.768;18.608;2024-03-23T03:08:04;8.20;99.90
11925;DHT22;6022;48.768;18.608;2024-03-23T03:10:31;8.10;99.90
11925;DHT22;6022;48.768;18.608;2024-03-23T03:13:01;8.60;99.90
11925;DHT22;6022;48.768;18.608;2024-03-23T03:15:28;8.40;99.90
11925;DHT22;6022;48.768;18.608;2024-03-23T03:17:55;8.40;99.90
11925;DHT22;6022;48.768;18.608;2024-03-23T03:20:22;8.40;99.90
11925;DHT22;6022;48.768;18.608;2024-03-23T03:22:50;8.30;99.90
11925;DHT22;6022;48.768;18.608;2024-03-23T03:25:19;8.40;99.90
11925;DHT22;6022;48.768;18.608;2024-03-23T03:27:46;8.40;99.90
11925;DHT22;6022;48.768;18.608;2024-03-23T03:30:15;8.40;99.90
11925;DHT22;6022;48.768;18.608;2024-03-23T03:32:42;8.30;99.90
11925;DHT22;6022;48.768;18.608;2024-03-23T03:35:09;8.60;99.90
11925;DHT22;6022;48.768;18.608;2024-03-23T03:37:36;8.30;99.90
11925;DHT22;6022;48.768;18.608;2024-03-23T03:40:04;8.30;99.90
11925;DHT22;6022;48.768;18.608;2024-03-23T03:42:34;8.20;99.90
11925;DHT22;6022;48.768;18.608;2024-03-23T03:45:01;8.20;99.90
11925;DHT22;6022;48.768;18.608;2024-03-23T03:47:30;8.20;99.90
11925;DHT22;6022;48.768;18.608;2024-03-23T03:49:57;8.20;99.90
11925;DHT22;6022;48.768;18.608;2024-03-23T03:52:24;8.10;99.90
11925;DHT22;6022;48.768;18.608;2024-03-23T03:54:50;8.10;99.90
11925;DHT22;6022;48.768;18.608;2024-03-23T03:57:18;8.10;99.90
11925;DHT22;6022;48.768;18.608;2024-03-23T03:59:44;8.10;99.90
11925;DHT22;6022;48.768;18.608;2024-03-23T04:02:12;7.80;99.90
11925;DHT22;6022;48.768;18.608;2024-03-23T04:04:38;7.90;99.90
11925;DHT22;6022;48.768;18.608;2024-03-23T04:07:05;7.80;99.90
11925;DHT22;6022;48.768;18.608;2024-03-23T04:09:32;8.30;99.90
11925;DHT22;6022;48.768;18.608;2024-03-23T04:11:59;8.00;99.90
11925;DHT22;6022;48.768;18.608;2024-03-23T04:14:26;7.90;99.90
11925;DHT22;6022;48.768;18.608;2024-03-23T04:16:53;7.90;99.90
11925;DHT22;6022;48.768;18.608;2024-03-23T04:19:20;7.80;99.90
11925;DHT22;6022;48.768;18.608;2024-03-23T04:21:47;7.70;99.90
11925;DHT22;6022;48.768;18.608;2024-03-23T04:24:16;8.20;99.90
11925;DHT22;6022;48.768;18.608;2024-03-23T04:26:45;7.70;99.90
11925;DHT22;6022;48.768;18.608;2024-03-23T04:29:13;7.70;99.90
11925;DHT22;6022;48.768;18.608;2024-03-23T04:31:40;7.80;99.90
11925;DHT22;6022;48.768;18.608;2024-03-23T04:34:06;8.10;99.90
11925;DHT22;6022;48.768;18.608;2024-03-23T04:36:33;7.60;99.90
11925;DHT22;6022;48.768;18.608;2024-03-23T04:39:00;7.50;99.90
11925;DHT22;6022;48.768;18.608;2024-03-23T04:41:27;7.80;99.90
11925;DHT22;6022;48.768;18.608;2024-03-23T04:43:54;7.80;99.90
11925;DHT22;6022;48.768;18.608;2024-03-23T04:46:22;7.80;99.90
11925;DHT22;6022;48.768;18.608;2024-03-23T04:48:49;7.80;99.90
11925;DHT22;6022;48.768;18.608;2024-03-23T04:51:25;7.60;99.90
11925;DHT22;6022;48.768;18.608;2024-03-23T04:54:00;7.80;99.90
11925;DHT22;6022;48.768;18.608;2024-03-23T04:56:28;7.80;99.90
11925;DHT22;6022;48.768;18.608;2024-03-23T04:58:54;8.00;99.90
11925;DHT22;6022;48.768;18.608;2024-03-23T05:01:30;7.80;99.90
11925;DHT22;6022;48.768;18.608;2024-03-23T05:04:09;7.80;99.90
11925;DHT22;6022;48.768;18.608;2024-03-23T05:06:36;8.00;99.90
11925;DHT22;6022;48.768;18.608;2024-03-23T05:09:02;8.20;99.90
11925;DHT22;6022;48.768;18.608;2024-03-23T05:11:33;8.10;99.90
11925;DHT22;6022;48.768;18.608;2024-03-23T05:14:00;7.90;99.90
11925;DHT22;6022;48.768;18.608;2024-03-23T05:16:35;7.90;99.90
11925;DHT22;6022;48.768;18.608;2024-03-23T05:19:04;7.90;99.90
11925;DHT22;6022;48.768;18.608;2024-03-23T05:21:31;8.00;99.90
11925;DHT22;6022;48.768;18.608;2024-03-23T05:23:58;8.20;99.90
11925;DHT22;6022;48.768;18.608;2024-03-23T05:26:25;8.20;99.90
11925;DHT22;6022;48.768;18.608;2024-03-23T05:28:52;8.10;99.90
11925;DHT22;6022;48.768;18.608;2024-03-23T05:31:29;8.20;99.90
11925;DHT22;6022;48.768;18.608;2024-03-23T05:33:56;8.30;99.90
11925;DHT22;6022;48.768;18.608;2024-03-23T05:36:25;8.20;99.90
11925;DHT22;6022;48.768;18.608;2024-03-23T05:38:51;8.20;99.90
11925;DHT22;6022;48.768;18.608;2024-03-23T05:41:29;8.30;99.90
11925;DHT22;6022;48.768;18.608;2024-03-23T05:44:03;8.40;99.90
11925;DHT22;6022;48.768;18.608;2024-03-23T05:46:29;8.70;99.90
11925;DHT22;6022;48.768;18.608;2024-03-23T05:49:01;8.70;99.90
11925;DHT22;6022;48.768;18.608;2024-03-23T05:51:31;8.90;99.90
11925;DHT22;6022;48.768;18.608;2024-03-23T05:53:59;9.00;99.90
11925;DHT22;6022;48.768;18.608;2024-03-23T05:56:27;8.90;99.90
11925;DHT22;6022;48.768;18.608;2024-03-23T05:59:00;8.80;99.90
11925;DHT22;6022;48.768;18.608;2024-03-23T06:01:32;8.80;99.90
11925;DHT22;6022;48.768;18.608;2024-03-23T06:04:02;9.10;99.90
11925;DHT22;6022;48.768;18.608;2024-03-23T06:06:34;8.50;99.90
11925;DHT22;6022;48.768;18.608;2024-03-23T06:09:09;8.70;99.90
11925;DHT22;6022;48.768;18.608;2024-03-23T06:11:35;9.10;99.90
11925;DHT22;6022;48.768;18.608;2024-03-23T06:14:02;9.00;99.90
11925;DHT22;6022;48.768;18.608;2024-03-23T06:16:43;9.10;99.90
11925;DHT22;6022;48.768;18.608;2024-03-23T06:19:11;9.20;99.90
11925;DHT22;6022;48.768;18.608;2024-03-23T06:21:43;9.30;99.90
11925;DHT22;6022;48.768;18.608;2024-03-23T06:24:11;9.40;99.90
11925;DHT22;6022;48.768;18.608;2024-03-23T06:26:39;9.40;99.90
11925;DHT22;6022;48.768;18.608;2024-03-23T06:29:05;9.40;99.90
11925;DHT22;6022;48.768;18.608;2024-03-23T06:31:33;9.90;99.90
11925;DHT22;6022;48.768;18.608;2024-03-23T06:34:00;9.80;99.90
11925;DHT22;6022;48.768;18.608;2024-03-23T06:36:27;10.20;99.90
11925;DHT22;6022;48.768;18.608;2024-03-23T06:38:56;10.00;99.90
11925;DHT22;6022;48.768;18.608;2024-03-23T06:41:23;10.00;99.90
11925;DHT22;6022;48.768;18.608;2024-03-23T06:47:25;9.80;99.90
11925;DHT22;6022;48.768;18.608;2024-03-23T06:49:56;10.20;99.90
11925;DHT22;6022;48.768;18.608;2024-03-23T06:52:23;10.00;99.90
11925;DHT22;6022;48.768;18.608;2024-03-23T06:54:54;9.90;99.90
11925;DHT22;6022;48.768;18.608;2024-03-23T06:57:22;10.20;99.90
11925;DHT22;6022;48.768;18.608;2024-03-23T06:59:50;10.40;99.90
11925;DHT22;6022;48.768;18.608;2024-03-23T07:02:17;10.30;99.90
11925;DHT22;6022;48.768;18.608;2024-03-23T07:04:45;10.30;99.90
11925;DHT22;6022;48.768;18.608;2024-03-23T07:10:48;10.20;99.90
11925;DHT22;6022;48.768;18.608;2024-03-23T07:13:17;9.90;99.90
11925;DHT22;6022;48.768;18.608;2024-03-23T07:15:50;10.10;99.90
11925;DHT22;6022;48.768;18.608;2024-03-23T07:18:21;9.90;99.90
11925;DHT22;6022;48.768;18.608;2024-03-23T07:20:56;10.30;99.90
11925;DHT22;6022;48.768;18.608;2024-03-23T07:23:24;10.00;99.90
11925;DHT22;6022;48.768;18.608;2024-03-23T07:26:20;10.20;99.90
11925;DHT22;6022;48.768;18.608;2024-03-23T07:28:49;10.40;99.90
11925;DHT22;6022;48.768;18.608;2024-03-23T07:31:17;10.20;99.90
11925;DHT22;6022;48.768;18.608;2024-03-23T07:33:45;10.20;99.90
11925;DHT22;6022;48.768;18.608;2024-03-23T07:36:45;10.30;99.90
11925;DHT22;6022;48.768;18.608;2024-03-23T07:39:31;10.40;99.90
11925;DHT22;6022;48.768;18.608;2024-03-23T07:42:06;10.50;99.90
11925;DHT22;6022;48.768;18.608;2024-03-23T07:44:37;10.50;99.90
11925;DHT22;6022;48.768;18.608;2024-03-23T07:47:12;10.70;99.90
11925;DHT22;6022;48.768;18.608;2024-03-23T07:49:42;10.60;99.90
11925;DHT22;6022;48.768;18.608;2024-03-23T07:52:15;10.80;99.90
11925;DHT22;6022;48.768;18.608;2024-03-23T07:55:11;10.80;99.90
11925;DHT22;6022;48.768;18.608;2024-03-23T07:57:45;11.20;99.90
11925;DHT22;6022;48.768;18.608;2024-03-23T08:00:27;11.20;99.90
11925;DHT22;6022;48.768;18.608;2024-03-23T08:03:06;11.40;99.90
11925;DHT22;6022;48.768;18.608;2024-03-23T08:05:50;11.40;99.90
11925;DHT22;6022;48.768;18.608;2024-03-23T08:09:33;11.50;99.90
11925;DHT22;6022;48.768;18.608;2024-03-23T08:12:33;11.50;99.90
11925;DHT22;6022;48.768;18.608;2024-03-23T08:19:15;12.10;99.90
11925;DHT22;6022;48.768;18.608;2024-03-23T08:21:43;12.50;99.90
11925;DHT22;6022;48.768;18.608;2024-03-23T08:24:11;12.70;99.90
11925;DHT22;6022;48.768;18.608;2024-03-23T08:26:38;13.30;99.90
11925;DHT22;6022;48.768;18.608;2024-03-23T08:29:06;13.60;99.90
11925;DHT22;6022;48.768;18.608;2024-03-23T08:31:35;13.60;99.90
11925;DHT22;6022;48.768;18.608;2024-03-23T08:34:03;13.60;99.90
11925;DHT22;6022;48.768;18.608;2024-03-23T08:36:38;14.10;99.90
11925;DHT22;6022;48.768;18.608;2024-03-23T08:39:05;14.30;99.90
11925;DHT22;6022;48.768;18.608;2024-03-23T08:41:33;14.40;99.90
11925;DHT22;6022;48.768;18.608;2024-03-23T08:44:01;15.10;99.90
11925;DHT22;6022;48.768;18.608;2024-03-23T08:46:29;15.70;99.90
11925;DHT22;6022;48.768;18.608;2024-03-23T08:48:57;15.70;99.90
11925;DHT22;6022;48.768;18.608;2024-03-23T08:51:26;15.80;99.90
11925;DHT22;6022;48.768;18.608;2024-03-23T08:53:54;15.90;99.90
11925;DHT22;6022;48.768;18.608;2024-03-23T08:56:22;15.90;99.90
11925;DHT22;6022;48.768;18.608;2024-03-23T08:58:49;16.00;99.90
11925;DHT22;6022;48.768;18.608;2024-03-23T09:01:18;16.20;99.90
11925;DHT22;6022;48.768;18.608;2024-03-23T09:06:44;16.50;99.90
11925;DHT22;6022;48.768;18.608;2024-03-23T09:09:14;16.40;99.90
11925;DHT22;6022;48.768;18.608;2024-03-23T09:11:45;16.30;99.90
11925;DHT22;6022;48.768;18.608;2024-03-23T09:14:21;16.30;99.90
11925;DHT22;6022;48.768;18.608;2024-03-23T09:16:52;16.50;99.90
11925;DHT22;6022;48.768;18.608;2024-03-23T09:19:19;16.50;99.90
11925;DHT22;6022;48.768;18.608;2024-03-23T09:21:49;16.70;99.90
11925;DHT22;6022;48.768;18.608;2024-03-23T09:24:20;17.10;99.90
11925;DHT22;6022;48.768;18.608;2024-03-23T09:26:54;17.00;99.90
11925;DHT22;6022;48.768;18.608;2024-03-23T09:29:21;17.30;99.90
11925;DHT22;6022;48.768;18.608;2024-03-23T09:31:49;17.20;99.90
11925;DHT22;6022;48.768;18.608;2024-03-23T09:34:18;17.60;99.90
11925;DHT22;6022;48.768;18.608;2024-03-23T09:36:45;17.60;99.90
11925;DHT22;6022;48.768;18.608;2024-03-23T09:39:13;17.50;99.90
11925;DHT22;6022;48.768;18.608;2024-03-23T09:41:41;17.50;99.90
11925;DHT22;6022;48.768;18.608;2024-03-23T09:44:09;17.50;99.90
11925;DHT22;6022;48.768;18.608;2024-03-23T09:46:36;17.20;99.90
11925;DHT22;6022;48.768;18.608;2024-03-23T09:49:08;17.10;99.90
11925;DHT22;6022;48.768;18.608;2024-03-23T09:51:38;16.90;99.90
11925;DHT22;6022;48.768;18.608;2024-03-23T09:54:05;16.60;99.90
11925;DHT22;6022;48.768;18.608;2024-03-23T09:56:34;16.90;99.90
11925;DHT22;6022;48.768;18.608;2024-03-23T09:59:02;16.70;99.90
11925;DHT22;6022;48.768;18.608;2024-03-23T10:01:30;16.40;99.90
11925;DHT22;6022;48.768;18.608;2024-03-23T10:03:57;16.60;99.90
11925;DHT22;6022;48.768;18.608;2024-03-23T10:06:28;16.70;99.90
11925;DHT22;6022;48.768;18.608;2024-03-23T10:09:45;16.90;99.90
11925;DHT22;6022;48.768;18.608;2024-03-23T10:13:05;16.80;99.90
11925;DHT22;6022;48.768;18.608;2024-03-23T10:15:58;17.00;99.90
11925;DHT22;6022;48.768;18.608;2024-03-23T10:18:47;16.90;99.90
11925;DHT22;6022;48.768;18.608;2024-03-23T10:21:16;17.00;99.90
11925;DHT22;6022;48.768;18.608;2024-03-23T10:23:44;17.50;99.90
11925;DHT22;6022;48.768;18.608;2024-03-23T10:26:21;17.60;99.90
11925;DHT22;6022;48.768;18.608;2024-03-23T10:29:02;18.20;99.90
11925;DHT22;6022;48.768;18.608;2024-03-23T10:31:34;18.30;99.90
11925;DHT22;6022;48.768;18.608;2024-03-23T10:34:03;18.60;99.90
11925;DHT22;6022;48.768;18.608;2024-03-23T10:36:30;18.80;99.90
11925;DHT22;6022;48.768;18.608;2024-03-23T10:38:57;18.80;99.90
11925;DHT22;6022;48.768;18.608;2024-03-23T10:41:29;19.70;99.90
11925;DHT22;6022;48.768;18.608;2024-03-23T10:44:05;20.10;99.90
11925;DHT22;6022;48.768;18.608;2024-03-23T10:46:41;20.30;99.90
11925;DHT22;6022;48.768;18.608;2024-03-23T10:49:19;20.70;99.90
11925;DHT22;6022;48.768;18.608;2024-03-23T10:51:46;20.80;98.90
11925;DHT22;6022;48.768;18.608;2024-03-23T10:54:13;20.90;97.00
11925;DHT22;6022;48.768;18.608;2024-03-23T10:56:40;20.80;96.90
11925;DHT22;6022;48.768;18.608;2024-03-23T10:59:08;20.90;98.60
11925;DHT22;6022;48.768;18.608;2024-03-23T11:01:35;20.90;98.80
11925;DHT22;6022;48.768;18.608;2024-03-23T11:07:01;20.70;94.80
11925;DHT22;6022;48.768;18.608;2024-03-23T11:09:38;20.80;96.10
11925;DHT22;6022;48.768;18.608;2024-03-23T11:15:14;20.60;96.90
11925;DHT22;6022;48.768;18.608;2024-03-23T11:17:42;20.70;95.90
11925;DHT22;6022;48.768;18.608;2024-03-23T11:20:36;20.60;94.70
11925;DHT22;6022;48.768;18.608;2024-03-23T11:23:03;20.50;93.40
11925;DHT22;6022;48.768;18.608;2024-03-23T11:25:31;20.80;94.80
11925;DHT22;6022;48.768;18.608;2024-03-23T11:28:09;20.90;94.20
11925;DHT22;6022;48.768;18.608;2024-03-23T11:30:38;20.80;94.20
11925;DHT22;6022;48.768;18.608;2024-03-23T11:33:05;20.70;94.50
11925;DHT22;6022;48.768;18.608;2024-03-23T11:35:38;21.00;93.50
11925;DHT22;6022;48.768;18.608;2024-03-23T11:40:48;20.80;93.40
11925;DHT22;6022;48.768;18.608;2024-03-23T11:43:17;20.70;92.70
11925;DHT22;6022;48.768;18.608;2024-03-23T11:45:46;20.40;93.30
11925;DHT22;6022;48.768;18.608;2024-03-23T11:48:15;20.30;94.00
11925;DHT22;6022;48.768;18.608;2024-03-23T11:50:57;20.60;93.80
11925;DHT22;6022;48.768;18.608;2024-03-23T11:53:25;20.70;93.00
11925;DHT22;6022;48.768;18.608;2024-03-23T11:55:59;20.60;94.20
11925;DHT22;6022;48.768;18.608;2024-03-23T11:58:27;20.60;94.40
11925;DHT22;6022;48.768;18.608;2024-03-23T12:00:58;20.70;93.90
11925;DHT22;6022;48.768;18.608;2024-03-23T12:03:26;20.40;87.70
11925;DHT22;6022;48.768;18.608;2024-03-23T12:05:58;20.70;88.30
11925;DHT22;6022;48.768;18.608;2024-03-23T12:08:34;20.60;89.70
11925;DHT22;6022;48.768;18.608;2024-03-23T12:11:08;20.70;89.70
11925;DHT22;6022;48.768;18.608;2024-03-23T12:13:38;20.40;82.90
11925;DHT22;6022;48.768;18.608;2024-03-23T12:18:52;20.40;83.20
11925;DHT22;6022;48.768;18.608;2024-03-23T12:21:18;20.70;83.80
11925;DHT22;6022;48.768;18.608;2024-03-23T12:23:45;20.50;83.00
11925;DHT22;6022;48.768;18.608;2024-03-23T12:26:13;20.60;81.70
11925;DHT22;6022;48.768;18.608;2024-03-23T12:28:40;20.40;79.00
11925;DHT22;6022;48.768;18.608;2024-03-23T12:31:07;20.80;79.10
11925;DHT22;6022;48.768;18.608;2024-03-23T12:33:34;20.80;79.50
11925;DHT22;6022;48.768;18.608;2024-03-23T12:36:01;20.50;80.20
11925;DHT22;6022;48.768;18.608;2024-03-23T12:38:29;20.40;81.40
11925;DHT22;6022;48.768;18.608;2024-03-23T12:40:55;20.40;82.10
11925;DHT22;6022;48.768;18.608;2024-03-23T12:43:23;20.30;78.50
11925;DHT22;6022;48.768;18.608;2024-03-23T12:45:50;20.50;78.90
11925;DHT22;6022;48.768;18.608;2024-03-23T12:48:18;20.50;79.80
11925;DHT22;6022;48.768;18.608;2024-03-23T12:50:45;20.30;80.00
11925;DHT22;6022;48.768;18.608;2024-03-23T12:53:13;20.60;74.20
11925;DHT22;6022;48.768;18.608;2024-03-23T12:55:40;20.40;74.80
11925;DHT22;6022;48.768;18.608;2024-03-23T12:58:06;20.30;76.70
11925;DHT22;6022;48.768;18.608;2024-03-23T13:00:33;20.60;72.80
11925;DHT22;6022;48.768;18.608;2024-03-23T13:03:00;20.60;73.70
11925;DHT22;6022;48.768;18.608;2024-03-23T13:05:27;20.50;68.90
11925;DHT22;6022;48.768;18.608;2024-03-23T13:07:54;20.20;68.60
11925;DHT22;6022;48.768;18.608;2024-03-23T13:10:21;20.40;69.50
11925;DHT22;6022;48.768;18.608;2024-03-23T13:12:50;20.20;70.80
11925;DHT22;6022;48.768;18.608;2024-03-23T13:15:17;20.10;73.70
11925;DHT22;6022;48.768;18.608;2024-03-23T13:17:46;19.90;71.30
11925;DHT22;6022;48.768;18.608;2024-03-23T13:20:14;19.80;71.50
11925;DHT22;6022;48.768;18.608;2024-03-23T13:22:47;19.90;72.80
11925;DHT22;6022;48.768;18.608;2024-03-23T13:28:50;19.70;72.70
11925;DHT22;6022;48.768;18.608;2024-03-23T13:35:04;20.10;78.30
11925;DHT22;6022;48.768;18.608;2024-03-23T13:37:40;19.80;75.10
11925;DHT22;6022;48.768;18.608;2024-03-23T13:40:57;19.70;74.80
11925;DHT22;6022;48.768;18.608;2024-03-23T13:43:35;19.60;75.50
11925;DHT22;6022;48.768;18.608;2024-03-23T13:49:28;19.80;78.60
11925;DHT22;6022;48.768;18.608;2024-03-23T13:52:04;19.90;78.10
11925;DHT22;6022;48.768;18.608;2024-03-23T13:54:30;19.90;76.50
11925;DHT22;6022;48.768;18.608;2024-03-23T13:56:58;19.80;78.40
11925;DHT22;6022;48.768;18.608;2024-03-23T13:59:27;19.80;77.60
11925;DHT22;6022;48.768;18.608;2024-03-23T14:01:55;19.90;76.30
11925;DHT22;6022;48.768;18.608;2024-03-23T14:04:23;19.60;78.80
11925;DHT22;6022;48.768;18.608;2024-03-23T14:06:51;19.70;78.50
11925;DHT22;6022;48.768;18.608;2024-03-23T14:09:20;19.40;79.60
11925;DHT22;6022;48.768;18.608;2024-03-23T14:34:43;18.80;82.50
11925;DHT22;6022;48.768;18.608;2024-03-23T14:37:16;18.90;82.70
11925;DHT22;6022;48.768;18.608;2024-03-23T14:39:43;18.80;82.10
11925;DHT22;6022;48.768;18.608;2024-03-23T14:42:11;18.80;82.20
11925;DHT22;6022;48.768;18.608;2024-03-23T14:44:38;18.90;83.00
11925;DHT22;6022;48.768;18.608;2024-03-23T14:47:13;18.80;83.60
11925;DHT22;6022;48.768;18.608;2024-03-23T14:49:42;18.80;84.40
11925;DHT22;6022;48.768;18.608;2024-03-23T14:52:13;18.70;84.90
11925;DHT22;6022;48.768;18.608;2024-03-23T14:54:41;18.30;85.10
11925;DHT22;6022;48.768;18.608;2024-03-23T14:57:12;18.40;86.30
11925;DHT22;6022;48.768;18.608;2024-03-23T14:59:38;18.20;87.00
11925;DHT22;6022;48.768;18.608;2024-03-23T15:02:07;18.10;88.70
11925;DHT22;6022;48.768;18.608;2024-03-23T15:04:37;17.90;90.20
11925;DHT22;6022;48.768;18.608;2024-03-23T15:07:09;17.90;91.20
11925;DHT22;6022;48.768;18.608;2024-03-23T15:09:36;17.90;91.60
11925;DHT22;6022;48.768;18.608;2024-03-23T15:12:05;17.70;94.20
11925;DHT22;6022;48.768;18.608;2024-03-23T15:14:33;17.40;95.80
11925;DHT22;6022;48.768;18.608;2024-03-23T15:17:01;17.20;99.90
11925;DHT22;6022;48.768;18.608;2024-03-23T15:19:31;16.90;99.90
11925;DHT22;6022;48.768;18.608;2024-03-23T15:21:58;16.50;99.90
11925;DHT22;6022;48.768;18.608;2024-03-23T15:24:25;16.40;99.90
11925;DHT22;6022;48.768;18.608;2024-03-23T15:26:52;15.90;99.90
11925;DHT22;6022;48.768;18.608;2024-03-23T15:29:22;15.80;99.90
11925;DHT22;6022;48.768;18.608;2024-03-23T15:31:51;15.70;99.90
11925;DHT22;6022;48.768;18.608;2024-03-23T15:34:19;15.10;99.90
11925;DHT22;6022;48.768;18.608;2024-03-23T15:36:50;15.10;99.90
11925;DHT22;6022;48.768;18.608;2024-03-23T15:39:18;15.10;99.90
11925;DHT22;6022;48.768;18.608;2024-03-23T15:41:47;14.50;99.90
11925;DHT22;6022;48.768;18.608;2024-03-23T15:44:15;14.40;99.90
11925;DHT22;6022;48.768;18.608;2024-03-23T15:46:44;13.90;99.90
11925;DHT22;6022;48.768;18.608;2024-03-23T15:49:11;13.70;99.90
11925;DHT22;6022;48.768;18.608;2024-03-23T15:51:41;13.60;99.90
11925;DHT22;6022;48.768;18.608;2024-03-23T15:54:10;13.50;99.90
11925;DHT22;6022;48.768;18.608;2024-03-23T15:56:46;13.50;99.90
11925;DHT22;6022;48.768;18.608;2024-03-23T15:59:17;13.50;99.90
11925;DHT22;6022;48.768;18.608;2024-03-23T16:01:44;13.20;99.90
11925;DHT22;6022;48.768;18.608;2024-03-23T16:04:11;13.40;99.90
11925;DHT22;6022;48.768;18.608;2024-03-23T16:06:39;13.40;99.90
11925;DHT22;6022;48.768;18.608;2024-03-23T16:09:08;13.50;99.90
11925;DHT22;6022;48.768;18.608;2024-03-23T16:11:43;13.30;99.90
11925;DHT22;6022;48.768;18.608;2024-03-23T16:14:09;13.30;99.90
11925;DHT22;6022;48.768;18.608;2024-03-23T16:16:37;13.40;99.90
11925;DHT22;6022;48.768;18.608;2024-03-23T16:19:04;13.40;99.90
11925;DHT22;6022;48.768;18.608;2024-03-23T16:21:31;12.90;99.90
11925;DHT22;6022;48.768;18.608;2024-03-23T16:23:58;13.40;99.90
11925;DHT22;6022;48.768;18.608;2024-03-23T16:26:25;13.30;99.90
11925;DHT22;6022;48.768;18.608;2024-03-23T16:28:52;13.30;99.90
11925;DHT22;6022;48.768;18.608;2024-03-23T16:31:19;13.30;99.90
11925;DHT22;6022;48.768;18.608;2024-03-23T16:33:46;13.30;99.90
11925;DHT22;6022;48.768;18.608;2024-03-23T16:36:16;13.40;99.90
11925;DHT22;6022;48.768;18.608;2024-03-23T16:38:45;13.30;99.90
11925;DHT22;6022;48.768;18.608;2024-03-23T16:41:17;12.60;99.90
11925;DHT22;6022;48.768;18.608;2024-03-23T16:43:47;13.00;99.90
11925;DHT22;6022;48.768;18.608;2024-03-23T16:46:14;12.60;99.90
11925;DHT22;6022;48.768;18.608;2024-03-23T16:48:45;11.40;99.90
11925;DHT22;6022;48.768;18.608;2024-03-23T16:51:22;12.30;99.90
11925;DHT22;6022;48.768;18.608;2024-03-23T16:53:49;12.30;99.90
11925;DHT22;6022;48.768;18.608;2024-03-23T16:56:16;11.70;99.90
11925;DHT22;6022;48.768;18.608;2024-03-23T16:58:46;11.80;99.90
11925;DHT22;6022;48.768;18.608;2024-03-23T17:01:15;11.50;99.90
11925;DHT22;6022;48.768;18.608;2024-03-23T17:03:51;11.70;99.90
11925;DHT22;6022;48.768;18.608;2024-03-23T17:06:29;11.70;99.90
11925;DHT22;6022;48.768;18.608;2024-03-23T17:09:01;11.90;99.90
11925;DHT22;6022;48.768;18.608;2024-03-23T17:11:30;11.90;99.90
11925;DHT22;6022;48.768;18.608;2024-03-23T17:14:05;11.70;99.90
11925;DHT22;6022;48.768;18.608;2024-03-23T17:16:41;11.80;99.90
11925;DHT22;6022;48.768;18.608;2024-03-23T17:19:08;12.10;99.90
11925;DHT22;6022;48.768;18.608;2024-03-23T17:21:36;11.70;99.90
11925;DHT22;6022;48.768;18.608;2024-03-23T17:24:06;11.50;99.90
11925;DHT22;6022;48.768;18.608;2024-03-23T17:26:35;11.50;99.90
11925;DHT22;6022;48.768;18.608;2024-03-23T17:29:05;11.40;99.90
11925;DHT22;6022;48.768;18.608;2024-03-23T17:31:32;11.60;99.90
11925;DHT22;6022;48.768;18.608;2024-03-23T17:34:02;11.30;99.90
11925;DHT22;6022;48.768;18.608;2024-03-23T17:36:32;11.50;99.90
11925;DHT22;6022;48.768;18.608;2024-03-23T17:39:08;11.40;99.90
11925;DHT22;6022;48.768;18.608;2024-03-23T17:41:52;11.50;99.90
11925;DHT22;6022;48.768;18.608;2024-03-23T17:44:32;11.80;99.90
11925;DHT22;6022;48.768;18.608;2024-03-23T17:47:05;11.60;99.90
11925;DHT22;6022;48.768;18.608;2024-03-23T17:49:53;11.10;99.90